sensor_id;sensor_type;location;lat;lon;timestamp;temperature;humidity
19389;DHT22;9830;41.876;23.474;2022-10-16T00:01:30;3.30;99.90
19389;DHT22;9830;41.876;23.474;2022-10-16T00:03:57;3.20;99.90
19389;DHT22;9830;41.876;23.474;2022-10-16T00:06:24;3.00;99.90
19389;DHT22;9830;41.876;23.474;2022-10-16T00:08:50;3.00;99.90
19389;DHT22;9830;41.876;23.474;2022-10-16T00:11:25;3.00;99.90
19389;DHT22;9830;41.876;23.474;2022-10-16T00:13:54;3.00;99.90
19389;DHT22;9830;41.876;23.474;2022-10-16T00:16:21;2.80;99.90
19389;DHT22;9830;41.876;23.474;2022-10-16T00:18:46;2.80;99.90
19389;DHT22;9830;41.876;23.474;2022-10-16T00:21:21;2.80;99.90
19389;DHT22;9830;41.876;23.474;2022-10-16T00:23:54;2.90;99.90
19389;DHT22;9830;41.876;23.474;2022-10-16T00:26:20;3.00;99.90
19389;DHT22;9830;41.876;23.474;2022-10-16T00:28:50;3.00;99.90
19389;DHT22;9830;41.876;23.474;2022-10-16T00:31:16;3.00;99.90
19389;DHT22;9830;41.876;23.474;2022-10-16T00:33:43;3.00;99.90
19389;DHT22;9830;41.876;23.474;2022-10-16T00:36:12;3.00;99.90
19389;DHT22;9830;41.876;23.474;2022-10-16T00:38:38;3.00;99.90
19389;DHT22;9830;41.876;23.474;2022-10-16T00:41:06;3.00;99.90
19389;DHT22;9830;41.876;23.474;2022-10-16T00:43:48;2.90;99.90
19389;DHT22;9830;41.876;23.474;2022-10-16T00:46:27;2.80;99.90
19389;DHT22;9830;41.876;23.474;2022-10-16T00:51:34;2.90;99.90
19389;DHT22;9830;41.876;23.474;2022-10-16T00:54:02;2.80;99.90
19389;DHT22;9830;41.876;23.474;2022-10-16T00:56:29;2.90;99.90
19389;DHT22;9830;41.876;23.474;2022-10-16T00:58:55;2.80;99.90
19389;DHT22;9830;41.876;23.474;2022-10-16T01:01:21;2.80;99.90
19389;DHT22;9830;41.876;23.474;2022-10-16T01:03:47;2.80;99.90
19389;DHT22;9830;41.876;23.474;2022-10-16T01:11:37;2.70;99.90
19389;DHT22;9830;41.876;23.474;2022-10-16T01:14:15;2.60;99.90
19389;DHT22;9830;41.876;23.474;2022-10-16T01:16:52;2.50;99.90
19389;DHT22;9830;41.876;23.474;2022-10-16T01:22:01;2.60;99.90
19389;DHT22;9830;41.876;23.474;2022-10-16T01:30:04;2.60;99.90
19389;DHT22;9830;41.876;23.474;2022-10-16T01:32:57;2.60;99.90
19389;DHT22;9830;41.876;23.474;2022-10-16T01:35:52;2.60;99.90
19389;DHT22;9830;41.876;23.474;2022-10-16T01:38:29;2.50;99.90
19389;DHT22;9830;41.876;23.474;2022-10-16T01:41:11;2.50;99.90
19389;DHT22;9830;41.876;23.474;2022-10-16T01:43:48;2.30;99.90
19389;DHT22;9830;41.876;23.474;2022-10-16T01:46:17;2.30;99.90
19389;DHT22;9830;41.876;23.474;2022-10-16T01:48:44;2.30;99.90
19389;DHT22;9830;41.876;23.474;2022-10-16T01:51:12;2.30;99.90
19389;DHT22;9830;41.876;23.474;2022-10-16T01:53:45;2.20;99.90
19389;DHT22;9830;41.876;23.474;2022-10-16T01:56:13;2.00;99.90
19389;DHT22;9830;41.876;23.474;2022-10-16T01:58:48;2.10;99.90
19389;DHT22;9830;41.876;23.474;2022-10-16T02:01:17;2.10;99.90
19389;DHT22;9830;41.876;23.474;2022-10-16T02:03:44;2.10;99.90
19389;DHT22;9830;41.876;23.474;2022-10-16T02:06:12;2.10;99.90
19389;DHT22;9830;41.876;23.474;2022-10-16T02:08:38;2.10;99.90
19389;DHT22;9830;41.876;23.474;2022-10-16T02:11:06;2.00;99.90
19389;DHT22;9830;41.876;23.474;2022-10-16T02:13:48;2.00;99.90
19389;DHT22;9830;41.876;23.474;2022-10-16T02:16:15;2.00;99.90
19389;DHT22;9830;41.876;23.474;2022-10-16T02:18:42;2.00;99.90
19389;DHT22;9830;41.876;23.474;2022-10-16T02:21:31;1.90;99.90
19389;DHT22;9830;41.876;23.474;2022-10-16T02:26:46;1.90;99.90
19389;DHT22;9830;41.876;23.474;2022-10-16T02:29:16;1.80;99.90
19389;DHT22;9830;41.876;23.474;2022-10-16T02:31:46;1.80;99.90
19389;DHT22;9830;41.876;23.474;2022-10-16T02:34:15;1.70;99.90
19389;DHT22;9830;41.876;23.474;2022-10-16T02:36:42;1.60;99.90
19389;DHT22;9830;41.876;23.474;2022-10-16T02:39:09;1.60;99.90
19389;DHT22;9830;41.876;23.474;2022-10-16T02:41:36;1.60;99.90
19389;DHT22;9830;41.876;23.474;2022-10-16T02:44:02;1.50;99.90
19389;DHT22;9830;41.876;23.474;2022-10-16T02:46:27;1.50;99.90
19389;DHT22;9830;41.876;23.474;2022-10-16T02:48:53;1.50;99.90
19389;DHT22;9830;41.876;23.474;2022-10-16T02:51:19;1.60;99.90
19389;DHT22;9830;41.876;23.474;2022-10-16T02:53:44;1.60;99.90
19389;DHT22;9830;41.876;23.474;2022-10-16T02:56:10;1.60;99.90
19389;DHT22;9830;41.876;23.474;2022-10-16T02:58:36;1.60;99.90
19389;DHT22;9830;41.876;23.474;2022-10-16T03:01:01;1.60;99.90
19389;DHT22;9830;41.876;23.474;2022-10-16T03:03:27;1.60;99.90
19389;DHT22;9830;41.876;23.474;2022-10-16T03:05:53;1.50;99.90
19389;DHT22;9830;41.876;23.474;2022-10-16T03:08:18;1.50;99.90
19389;DHT22;9830;41.876;23.474;2022-10-16T03:10:49;1.50;99.90
19389;DHT22;9830;41.876;23.474;2022-10-16T03:13:15;1.60;99.90
19389;DHT22;9830;41.876;23.474;2022-10-16T03:15:41;1.60;99.90
19389;DHT22;9830;41.876;23.474;2022-10-16T03:18:07;1.60;99.90
19389;DHT22;9830;41.876;23.474;2022-10-16T03:20:33;1.40;99.90
19389;DHT22;9830;41.876;23.474;2022-10-16T03:22:58;1.30;99.90
19389;DHT22;9830;41.876;23.474;2022-10-16T03:25:24;1.30;99.90
19389;DHT22;9830;41.876;23.474;2022-10-16T03:27:50;1.30;99.90
19389;DHT22;9830;41.876;23.474;2022-10-16T03:30:16;1.40;99.90
19389;DHT22;9830;41.876;23.474;2022-10-16T03:32:43;1.40;99.90
19389;DHT22;9830;41.876;23.474;2022-10-16T03:35:09;1.40;99.90
19389;DHT22;9830;41.876;23.474;2022-10-16T03:37:34;1.50;99.90
19389;DHT22;9830;41.876;23.474;2022-10-16T03:40:01;1.40;99.90
19389;DHT22;9830;41.876;23.474;2022-10-16T03:42:26;1.30;99.90
19389;DHT22;9830;41.876;23.474;2022-10-16T03:44:52;1.20;99.90
19389;DHT22;9830;41.876;23.474;2022-10-16T03:47:18;1.20;99.90
19389;DHT22;9830;41.876;23.474;2022-10-16T03:49:47;1.20;99.90
19389;DHT22;9830;41.876;23.474;2022-10-16T03:52:13;1.20;99.90
19389;DHT22;9830;41.876;23.474;2022-10-16T03:54:39;1.20;99.90
19389;DHT22;9830;41.876;23.474;2022-10-16T03:57:04;1.20;99.90
19389;DHT22;9830;41.876;23.474;2022-10-16T03:59:30;1.20;99.90
19389;DHT22;9830;41.876;23.474;2022-10-16T04:01:56;1.30;99.90
19389;DHT22;9830;41.876;23.474;2022-10-16T04:04:21;1.20;99.90
19389;DHT22;9830;41.876;23.474;2022-10-16T04:06:47;1.20;99.90
19389;DHT22;9830;41.876;23.474;2022-10-16T04:09:13;1.10;99.90
19389;DHT22;9830;41.876;23.474;2022-10-16T04:11:38;1.10;99.90
19389;DHT22;9830;41.876;23.474;2022-10-16T04:14:04;1.10;99.90
19389;DHT22;9830;41.876;23.474;2022-10-16T04:16:30;1.10;99.90
19389;DHT22;9830;41.876;23.474;2022-10-16T04:18:56;1.10;99.90
19389;DHT22;9830;41.876;23.474;2022-10-16T04:21:21;1.10;99.90
19389;DHT22;9830;41.876;23.474;2022-10-16T04:23:48;1.10;99.90
19389;DHT22;9830;41.876;23.474;2022-10-16T04:26:14;1.00;99.90
19389;DHT22;9830;41.876;23.474;2022-10-16T04:28:40;1.00;99.90
19389;DHT22;9830;41.876;23.474;2022-10-16T04:31:06;0.90;99.90
19389;DHT22;9830;41.876;23.474;2022-10-16T04:33:33;0.80;99.90
19389;DHT22;9830;41.876;23.474;2022-10-16T04:36:02;0.80;99.90
19389;DHT22;9830;41.876;23.474;2022-10-16T04:38:28;0.80;99.90
19389;DHT22;9830;41.876;23.474;2022-10-16T04:40:54;0.80;99.90
19389;DHT22;9830;41.876;23.474;2022-10-16T04:43:20;0.80;99.90
19389;DHT22;9830;41.876;23.474;2022-10-16T04:45:46;0.90;99.90
19389;DHT22;9830;41.876;23.474;2022-10-16T04:48:12;0.90;99.90
19389;DHT22;9830;41.876;23.474;2022-10-16T04:50:37;0.90;99.90
19389;DHT22;9830;41.876;23.474;2022-10-16T04:53:03;1.00;99.90
19389;DHT22;9830;41.876;23.474;2022-10-16T04:55:29;1.00;99.90
19389;DHT22;9830;41.876;23.474;2022-10-16T04:57:54;1.00;99.90
19389;DHT22;9830;41.876;23.474;2022-10-16T05:00:20;1.00;99.90
19389;DHT22;9830;41.876;23.474;2022-10-16T05:02:49;1.10;99.90
19389;DHT22;9830;41.876;23.474;2022-10-16T05:05:15;1.20;99.90
19389;DHT22;9830;41.876;23.474;2022-10-16T05:07:40;1.30;99.90
19389;DHT22;9830;41.876;23.474;2022-10-16T05:10:06;1.30;99.90
19389;DHT22;9830;41.876;23.474;2022-10-16T05:12:32;1.40;99.90
19389;DHT22;9830;41.876;23.474;2022-10-16T05:14:58;1.50;99.90
19389;DHT22;9830;41.876;23.474;2022-10-16T05:17:27;1.90;99.90
19389;DHT22;9830;41.876;23.474;2022-10-16T05:19:52;2.20;99.90
19389;DHT22;9830;41.876;23.474;2022-10-16T05:22:18;2.50;99.90
19389;DHT22;9830;41.876;23.474;2022-10-16T05:24:44;3.10;99.90
19389;DHT22;9830;41.876;23.474;2022-10-16T05:27:10;3.60;99.90
19389;DHT22;9830;41.876;23.474;2022-10-16T05:29:47;4.20;99.90
19389;DHT22;9830;41.876;23.474;2022-10-16T05:32:14;4.50;99.90
19389;DHT22;9830;41.876;23.474;2022-10-16T05:34:40;5.20;99.90
19389;DHT22;9830;41.876;23.474;2022-10-16T05:37:06;6.40;99.90
19389;DHT22;9830;41.876;23.474;2022-10-16T05:39:32;6.20;99.90
19389;DHT22;9830;41.876;23.474;2022-10-16T05:41:58;6.30;99.90
19389;DHT22;9830;41.876;23.474;2022-10-16T05:44:23;6.20;99.90
19389;DHT22;9830;41.876;23.474;2022-10-16T05:46:49;6.10;99.90
19389;DHT22;9830;41.876;23.474;2022-10-16T05:49:15;6.00;99.90
19389;DHT22;9830;41.876;23.474;2022-10-16T05:51:41;6.70;99.90
19389;DHT22;9830;41.876;23.474;2022-10-16T05:54:07;7.60;97.60
19389;DHT22;9830;41.876;23.474;2022-10-16T05:56:33;7.80;96.80
19389;DHT22;9830;41.876;23.474;2022-10-16T05:58:59;8.40;94.60
19389;DHT22;9830;41.876;23.474;2022-10-16T06:01:25;9.90;91.80
19389;DHT22;9830;41.876;23.474;2022-10-16T06:03:51;10.10;83.90
19389;DHT22;9830;41.876;23.474;2022-10-16T06:06:20;10.20;87.10
19389;DHT22;9830;41.876;23.474;2022-10-16T06:08:47;11.80;76.90
19389;DHT22;9830;41.876;23.474;2022-10-16T06:11:18;12.50;68.70
19389;DHT22;9830;41.876;23.474;2022-10-16T06:13:44;11.30;73.50
19389;DHT22;9830;41.876;23.474;2022-10-16T06:16:12;11.00;77.40
19389;DHT22;9830;41.876;23.474;2022-10-16T06:18:38;11.00;78.70
19389;DHT22;9830;41.876;23.474;2022-10-16T06:21:30;11.70;79.60
19389;DHT22;9830;41.876;23.474;2022-10-16T06:23:56;12.20;73.10
19389;DHT22;9830;41.876;23.474;2022-10-16T06:26:27;12.40;73.80
19389;DHT22;9830;41.876;23.474;2022-10-16T06:28:58;13.00;71.90
19389;DHT22;9830;41.876;23.474;2022-10-16T06:31:25;14.70;63.00
19389;DHT22;9830;41.876;23.474;2022-10-16T06:33:57;16.50;56.10
19389;DHT22;9830;41.876;23.474;2022-10-16T06:36:23;17.40;52.30
19389;DHT22;9830;41.876;23.474;2022-10-16T06:38:50;17.40;50.90
19389;DHT22;9830;41.876;23.474;2022-10-16T06:41:18;16.90;51.40
19389;DHT22;9830;41.876;23.474;2022-10-16T06:43:44;16.30;53.80
19389;DHT22;9830;41.876;23.474;2022-10-16T06:46:15;15.60;55.80
19389;DHT22;9830;41.876;23.474;2022-10-16T06:48:41;15.60;56.40
19389;DHT22;9830;41.876;23.474;2022-10-16T06:51:14;14.60;57.30
19389;DHT22;9830;41.876;23.474;2022-10-16T06:53:42;15.30;59.10
19389;DHT22;9830;41.876;23.474;2022-10-16T06:56:13;15.90;56.00
19389;DHT22;9830;41.876;23.474;2022-10-16T06:58:40;14.70;57.30
19389;DHT22;9830;41.876;23.474;2022-10-16T07:01:07;16.10;54.70
19389;DHT22;9830;41.876;23.474;2022-10-16T07:03:33;17.10;52.80
19389;DHT22;9830;41.876;23.474;2022-10-16T07:06:02;15.70;55.30
19389;DHT22;9830;41.876;23.474;2022-10-16T07:08:31;15.90;57.10
19389;DHT22;9830;41.876;23.474;2022-10-16T07:11:02;16.70;54.60
19389;DHT22;9830;41.876;23.474;2022-10-16T07:13:28;17.10;53.30
19389;DHT22;9830;41.876;23.474;2022-10-16T07:15:54;18.00;51.50
19389;DHT22;9830;41.876;23.474;2022-10-16T07:18:20;18.40;50.90
19389;DHT22;9830;41.876;23.474;2022-10-16T07:20:46;18.00;52.40
19389;DHT22;9830;41.876;23.474;2022-10-16T07:23:11;18.70;51.60
19389;DHT22;9830;41.876;23.474;2022-10-16T07:25:37;19.90;48.40
19389;DHT22;9830;41.876;23.474;2022-10-16T07:28:03;19.30;49.40
19389;DHT22;9830;41.876;23.474;2022-10-16T07:30:28;19.00;50.00
19389;DHT22;9830;41.876;23.474;2022-10-16T07:32:54;20.20;47.80
19389;DHT22;9830;41.876;23.474;2022-10-16T07:35:20;20.50;47.70
19389;DHT22;9830;41.876;23.474;2022-10-16T07:37:46;21.20;46.00
19389;DHT22;9830;41.876;23.474;2022-10-16T07:40:12;21.60;45.10
19389;DHT22;9830;41.876;23.474;2022-10-16T07:42:37;21.30;46.20
19389;DHT22;9830;41.876;23.474;2022-10-16T07:45:04;21.90;44.20
19389;DHT22;9830;41.876;23.474;2022-10-16T07:47:30;21.50;44.20
19389;DHT22;9830;41.876;23.474;2022-10-16T07:49:55;20.80;47.30
19389;DHT22;9830;41.876;23.474;2022-10-16T07:52:21;20.90;47.00
19389;DHT22;9830;41.876;23.474;2022-10-16T07:54:47;22.60;43.90
19389;DHT22;9830;41.876;23.474;2022-10-16T07:57:12;22.40;43.90
19389;DHT22;9830;41.876;23.474;2022-10-16T07:59:47;23.10;43.00
19389;DHT22;9830;41.876;23.474;2022-10-16T08:02:13;22.70;43.00
19389;DHT22;9830;41.876;23.474;2022-10-16T08:04:38;22.70;43.60
19389;DHT22;9830;41.876;23.474;2022-10-16T08:07:04;22.20;45.30
19389;DHT22;9830;41.876;23.474;2022-10-16T08:09:31;22.30;45.40
19389;DHT22;9830;41.876;23.474;2022-10-16T08:11:57;22.90;44.30
19389;DHT22;9830;41.876;23.474;2022-10-16T08:14:23;22.90;43.60
19389;DHT22;9830;41.876;23.474;2022-10-16T08:16:48;22.60;44.40
19389;DHT22;9830;41.876;23.474;2022-10-16T08:19:14;23.60;43.20
19389;DHT22;9830;41.876;23.474;2022-10-16T08:21:41;24.00;41.70
19389;DHT22;9830;41.876;23.474;2022-10-16T08:24:06;23.40;41.70
19389;DHT22;9830;41.876;23.474;2022-10-16T08:26:32;22.40;44.00
19389;DHT22;9830;41.876;23.474;2022-10-16T08:28:58;22.80;43.20
19389;DHT22;9830;41.876;23.474;2022-10-16T08:31:24;23.30;42.40
19389;DHT22;9830;41.876;23.474;2022-10-16T08:33:50;23.30;42.30
19389;DHT22;9830;41.876;23.474;2022-10-16T08:36:16;22.30;43.30
19389;DHT22;9830;41.876;23.474;2022-10-16T08:38:42;22.50;42.80
19389;DHT22;9830;41.876;23.474;2022-10-16T08:41:13;22.20;43.60
19389;DHT22;9830;41.876;23.474;2022-10-16T08:49:21;22.90;43.50
19389;DHT22;9830;41.876;23.474;2022-10-16T08:51:46;22.90;41.80
19389;DHT22;9830;41.876;23.474;2022-10-16T08:54:37;22.30;41.60
19389;DHT22;9830;41.876;23.474;2022-10-16T08:59:37;23.10;40.60
19389;DHT22;9830;41.876;23.474;2022-10-16T09:04:56;23.40;40.00
19389;DHT22;9830;41.876;23.474;2022-10-16T09:08:41;25.10;36.70
19389;DHT22;9830;41.876;23.474;2022-10-16T09:10:59;25.00;36.70
19389;DHT22;9830;41.876;23.474;2022-10-16T09:16:27;23.30;38.90
19389;DHT22;9830;41.876;23.474;2022-10-16T09:21:31;25.30;36.30
19389;DHT22;9830;41.876;23.474;2022-10-16T09:24:14;25.60;35.20
19389;DHT22;9830;41.876;23.474;2022-10-16T09:26:41;25.70;33.40
19389;DHT22;9830;41.876;23.474;2022-10-16T09:29:15;26.30;33.90
19389;DHT22;9830;41.876;23.474;2022-10-16T09:31:42;25.80;32.00
19389;DHT22;9830;41.876;23.474;2022-10-16T09:34:32;24.50;33.50
19389;DHT22;9830;41.876;23.474;2022-10-16T09:37:05;24.80;34.60
19389;DHT22;9830;41.876;23.474;2022-10-16T09:39:49;25.60;32.60
19389;DHT22;9830;41.876;23.474;2022-10-16T09:42:17;25.50;34.30
19389;DHT22;9830;41.876;23.474;2022-10-16T09:44:48;24.60;35.00
19389;DHT22;9830;41.876;23.474;2022-10-16T09:47:20;24.70;34.80
19389;DHT22;9830;41.876;23.474;2022-10-16T09:49:56;24.20;36.60
19389;DHT22;9830;41.876;23.474;2022-10-16T09:52:23;24.30;34.80
19389;DHT22;9830;41.876;23.474;2022-10-16T09:55:13;24.90;34.90
19389;DHT22;9830;41.876;23.474;2022-10-16T09:57:53;25.50;34.30
19389;DHT22;9830;41.876;23.474;2022-10-16T10:00:21;25.70;32.50
19389;DHT22;9830;41.876;23.474;2022-10-16T10:02:47;25.80;32.80
19389;DHT22;9830;41.876;23.474;2022-10-16T10:05:39;25.20;32.30
19389;DHT22;9830;41.876;23.474;2022-10-16T10:08:04;24.70;33.30
19389;DHT22;9830;41.876;23.474;2022-10-16T10:10:41;24.70;33.40
19389;DHT22;9830;41.876;23.474;2022-10-16T10:13:19;25.10;32.70
19389;DHT22;9830;41.876;23.474;2022-10-16T10:15:45;26.00;31.50
19389;DHT22;9830;41.876;23.474;2022-10-16T10:18:20;25.30;33.20
19389;DHT22;9830;41.876;23.474;2022-10-16T10:21:01;24.80;34.00
19389;DHT22;9830;41.876;23.474;2022-10-16T10:23:29;25.50;32.10
19389;DHT22;9830;41.876;23.474;2022-10-16T10:26:20;25.30;32.30
19389;DHT22;9830;41.876;23.474;2022-10-16T10:31:56;25.40;32.30
19389;DHT22;9830;41.876;23.474;2022-10-16T10:37:40;24.60;33.50
19389;DHT22;9830;41.876;23.474;2022-10-16T10:45:47;23.00;37.20
19389;DHT22;9830;41.876;23.474;2022-10-16T10:48:54;22.40;36.80
19389;DHT22;9830;41.876;23.474;2022-10-16T10:57:16;21.20;40.60
19389;DHT22;9830;41.876;23.474;2022-10-16T11:03:06;21.20;40.20
19389;DHT22;9830;41.876;23.474;2022-10-16T11:08:23;21.00;40.90
19389;DHT22;9830;41.876;23.474;2022-10-16T11:11:09;21.20;40.40
19389;DHT22;9830;41.876;23.474;2022-10-16T11:13:49;21.30;40.50
19389;DHT22;9830;41.876;23.474;2022-10-16T11:24:41;21.20;40.60
19389;DHT22;9830;41.876;23.474;2022-10-16T11:27:14;20.90;40.80
19389;DHT22;9830;41.876;23.474;2022-10-16T11:29:49;20.90;40.70
19389;DHT22;9830;41.876;23.474;2022-10-16T11:32:28;21.00;40.30
19389;DHT22;9830;41.876;23.474;2022-10-16T11:35:00;20.80;40.80
19389;DHT22;9830;41.876;23.474;2022-10-16T11:37:32;20.50;41.00
19389;DHT22;9830;41.876;23.474;2022-10-16T11:40:25;20.50;42.20
19389;DHT22;9830;41.876;23.474;2022-10-16T11:45:58;20.60;41.50
19389;DHT22;9830;41.876;23.474;2022-10-16T11:56:26;20.60;42.30
19389;DHT22;9830;41.876;23.474;2022-10-16T12:01:21;20.90;41.70
19389;DHT22;9830;41.876;23.474;2022-10-16T12:09:25;21.00;41.20
19389;DHT22;9830;41.876;23.474;2022-10-16T12:11:52;21.00;40.90
19389;DHT22;9830;41.876;23.474;2022-10-16T12:14:21;21.00;41.30
19389;DHT22;9830;41.876;23.474;2022-10-16T12:16:57;20.90;41.20
19389;DHT22;9830;41.876;23.474;2022-10-16T12:19:26;21.00;43.10
19389;DHT22;9830;41.876;23.474;2022-10-16T12:21:56;20.90;41.00
19389;DHT22;9830;41.876;23.474;2022-10-16T12:24:39;20.50;41.40
19389;DHT22;9830;41.876;23.474;2022-10-16T12:27:25;20.40;43.60
19389;DHT22;9830;41.876;23.474;2022-10-16T12:29:59;20.40;42.20
19389;DHT22;9830;41.876;23.474;2022-10-16T12:32:32;20.50;43.80
19389;DHT22;9830;41.876;23.474;2022-10-16T12:35:00;20.70;43.40
19389;DHT22;9830;41.876;23.474;2022-10-16T12:37:32;20.80;43.00
19389;DHT22;9830;41.876;23.474;2022-10-16T12:39:59;20.60;42.00
19389;DHT22;9830;41.876;23.474;2022-10-16T12:42:36;20.50;42.00
19389;DHT22;9830;41.876;23.474;2022-10-16T12:45:34;20.20;43.60
19389;DHT22;9830;41.876;23.474;2022-10-16T12:48:04;20.40;43.90
19389;DHT22;9830;41.876;23.474;2022-10-16T12:50:43;20.40;42.30
19389;DHT22;9830;41.876;23.474;2022-10-16T12:53:23;20.50;44.70
19389;DHT22;9830;41.876;23.474;2022-10-16T12:58:59;20.40;44.10
19389;DHT22;9830;41.876;23.474;2022-10-16T13:10:40;20.40;43.90
19389;DHT22;9830;41.876;23.474;2022-10-16T13:16:56;20.10;44.50
19389;DHT22;9830;41.876;23.474;2022-10-16T13:22:24;20.20;44.50
19389;DHT22;9830;41.876;23.474;2022-10-16T13:25:41;20.20;44.70
19389;DHT22;9830;41.876;23.474;2022-10-16T13:28:02;20.10;44.90
19389;DHT22;9830;41.876;23.474;2022-10-16T13:30:30;20.00;44.60
19389;DHT22;9830;41.876;23.474;2022-10-16T13:33:01;20.00;46.90
19389;DHT22;9830;41.876;23.474;2022-10-16T13:35:30;19.80;47.10
19389;DHT22;9830;41.876;23.474;2022-10-16T13:38:24;19.80;48.70
19389;DHT22;9830;41.876;23.474;2022-10-16T13:41:05;19.60;47.90
19389;DHT22;9830;41.876;23.474;2022-10-16T13:43:43;19.40;49.30
19389;DHT22;9830;41.876;23.474;2022-10-16T13:46:18;19.30;48.60
19389;DHT22;9830;41.876;23.474;2022-10-16T13:48:45;19.20;49.40
19389;DHT22;9830;41.876;23.474;2022-10-16T13:51:21;19.10;50.00
19389;DHT22;9830;41.876;23.474;2022-10-16T13:53:46;19.00;50.60
19389;DHT22;9830;41.876;23.474;2022-10-16T13:56:19;19.00;51.20
19389;DHT22;9830;41.876;23.474;2022-10-16T13:58:46;18.90;50.70
19389;DHT22;9830;41.876;23.474;2022-10-16T14:03:41;18.80;51.20
19389;DHT22;9830;41.876;23.474;2022-10-16T14:06:14;18.70;52.00
19389;DHT22;9830;41.876;23.474;2022-10-16T14:08:44;18.60;53.10
19389;DHT22;9830;41.876;23.474;2022-10-16T14:11:11;18.60;52.30
19389;DHT22;9830;41.876;23.474;2022-10-16T14:13:43;18.50;52.10
19389;DHT22;9830;41.876;23.474;2022-10-16T14:16:16;18.40;52.10
19389;DHT22;9830;41.876;23.474;2022-10-16T14:18:46;18.30;53.40
19389;DHT22;9830;41.876;23.474;2022-10-16T14:21:16;18.30;53.30
19389;DHT22;9830;41.876;23.474;2022-10-16T14:23:43;18.20;53.50
19389;DHT22;9830;41.876;23.474;2022-10-16T14:28:36;18.00;54.60
19389;DHT22;9830;41.876;23.474;2022-10-16T14:33:55;17.70;54.90
19389;DHT22;9830;41.876;23.474;2022-10-16T14:36:22;17.70;56.40
19389;DHT22;9830;41.876;23.474;2022-10-16T14:39:18;17.70;56.40
19389;DHT22;9830;41.876;23.474;2022-10-16T14:41:47;17.50;58.30
19389;DHT22;9830;41.876;23.474;2022-10-16T14:44:13;17.40;60.80
19389;DHT22;9830;41.876;23.474;2022-10-16T14:46:41;17.30;61.80
19389;DHT22;9830;41.876;23.474;2022-10-16T14:51:37;16.90;65.90
19389;DHT22;9830;41.876;23.474;2022-10-16T14:54:04;16.80;65.00
19389;DHT22;9830;41.876;23.474;2022-10-16T14:56:51;16.60;68.10
19389;DHT22;9830;41.876;23.474;2022-10-16T14:59:28;16.50;70.30
19389;DHT22;9830;41.876;23.474;2022-10-16T15:01:55;16.40;65.70
19389;DHT22;9830;41.876;23.474;2022-10-16T15:04:21;16.20;61.60
19389;DHT22;9830;41.876;23.474;2022-10-16T15:06:46;16.10;63.50
19389;DHT22;9830;41.876;23.474;2022-10-16T15:09:12;15.80;61.00
19389;DHT22;9830;41.876;23.474;2022-10-16T15:11:38;15.70;54.70
19389;DHT22;9830;41.876;23.474;2022-10-16T15:14:04;15.60;52.80
19389;DHT22;9830;41.876;23.474;2022-10-16T15:16:31;15.50;53.60
19389;DHT22;9830;41.876;23.474;2022-10-16T15:18:57;15.30;52.40
19389;DHT22;9830;41.876;23.474;2022-10-16T15:21:29;15.00;50.20
19389;DHT22;9830;41.876;23.474;2022-10-16T15:23:56;14.90;49.20
19389;DHT22;9830;41.876;23.474;2022-10-16T15:26:25;14.80;49.60
19389;DHT22;9830;41.876;23.474;2022-10-16T15:28:52;14.70;49.80
19389;DHT22;9830;41.876;23.474;2022-10-16T15:31:17;14.50;49.40
19389;DHT22;9830;41.876;23.474;2022-10-16T15:33:43;14.40;50.60
19389;DHT22;9830;41.876;23.474;2022-10-16T15:36:09;14.10;52.90
19389;DHT22;9830;41.876;23.474;2022-10-16T15:38:35;13.90;51.80
19389;DHT22;9830;41.876;23.474;2022-10-16T15:41:01;13.80;51.40
19389;DHT22;9830;41.876;23.474;2022-10-16T15:43:26;13.60;58.60
19389;DHT22;9830;41.876;23.474;2022-10-16T15:46:03;13.20;72.60
19389;DHT22;9830;41.876;23.474;2022-10-16T15:48:31;12.90;79.90
19389;DHT22;9830;41.876;23.474;2022-10-16T15:50:57;12.60;83.30
19389;DHT22;9830;41.876;23.474;2022-10-16T15:53:23;12.40;85.70
19389;DHT22;9830;41.876;23.474;2022-10-16T15:55:49;12.10;89.20
19389;DHT22;9830;41.876;23.474;2022-10-16T15:58:14;11.90;91.10
19389;DHT22;9830;41.876;23.474;2022-10-16T16:00:40;11.80;92.10
19389;DHT22;9830;41.876;23.474;2022-10-16T16:03:06;11.60;92.80
19389;DHT22;9830;41.876;23.474;2022-10-16T16:05:31;11.50;93.90
19389;DHT22;9830;41.876;23.474;2022-10-16T16:07:59;11.30;94.20
19389;DHT22;9830;41.876;23.474;2022-10-16T16:10:25;11.30;94.80
19389;DHT22;9830;41.876;23.474;2022-10-16T16:12:50;11.10;95.70
19389;DHT22;9830;41.876;23.474;2022-10-16T16:15:19;11.00;96.30
19389;DHT22;9830;41.876;23.474;2022-10-16T16:17:46;10.80;97.70
19389;DHT22;9830;41.876;23.474;2022-10-16T16:20:12;10.60;98.20
19389;DHT22;9830;41.876;23.474;2022-10-16T16:22:37;10.50;98.50
19389;DHT22;9830;41.876;23.474;2022-10-16T16:25:03;10.30;98.40
19389;DHT22;9830;41.876;23.474;2022-10-16T16:27:29;10.20;98.40
19389;DHT22;9830;41.876;23.474;2022-10-16T16:29:59;10.10;99.10
19389;DHT22;9830;41.876;23.474;2022-10-16T16:32:25;9.90;99.10
19389;DHT22;9830;41.876;23.474;2022-10-16T16:34:50;9.60;99.90
19389;DHT22;9830;41.876;23.474;2022-10-16T16:37:16;9.40;99.90
19389;DHT22;9830;41.876;23.474;2022-10-16T16:39:42;9.30;99.90
19389;DHT22;9830;41.876;23.474;2022-10-16T16:42:08;9.20;99.90
19389;DHT22;9830;41.876;23.474;2022-10-16T16:44:35;9.10;99.90
19389;DHT22;9830;41.876;23.474;2022-10-16T16:47:02;9.00;99.90
19389;DHT22;9830;41.876;23.474;2022-10-16T16:49:28;9.00;99.90
19389;DHT22;9830;41.876;23.474;2022-10-16T16:51:54;8.90;99.90
19389;DHT22;9830;41.876;23.474;2022-10-16T16:54:19;8.80;99.90
19389;DHT22;9830;41.876;23.474;2022-10-16T16:56:45;8.70;99.60
19389;DHT22;9830;41.876;23.474;2022-10-16T16:59:16;8.60;99.50
19389;DHT22;9830;41.876;23.474;2022-10-16T17:01:43;8.50;99.30
19389;DHT22;9830;41.876;23.474;2022-10-16T17:04:09;8.40;99.60
19389;DHT22;9830;41.876;23.474;2022-10-16T17:06:36;8.20;99.70
19389;DHT22;9830;41.876;23.474;2022-10-16T17:09:03;8.20;99.70
19389;DHT22;9830;41.876;23.474;2022-10-16T17:11:29;8.20;99.50
19389;DHT22;9830;41.876;23.474;2022-10-16T17:13:57;8.10;99.40
19389;DHT22;9830;41.876;23.474;2022-10-16T17:16:30;8.00;99.40
19389;DHT22;9830;41.876;23.474;2022-10-16T17:18:59;8.00;99.70
19389;DHT22;9830;41.876;23.474;2022-10-16T17:21:25;7.90;99.90
19389;DHT22;9830;41.876;23.474;2022-10-16T17:23:52;7.70;99.80
19389;DHT22;9830;41.876;23.474;2022-10-16T17:26:18;7.70;99.90
19389;DHT22;9830;41.876;23.474;2022-10-16T17:28:43;7.50;99.90
19389;DHT22;9830;41.876;23.474;2022-10-16T17:31:13;7.40;99.90
19389;DHT22;9830;41.876;23.474;2022-10-16T17:33:40;7.40;99.90
19389;DHT22;9830;41.876;23.474;2022-10-16T17:36:07;7.40;99.90
19389;DHT22;9830;41.876;23.474;2022-10-16T17:38:33;7.40;99.90
19389;DHT22;9830;41.876;23.474;2022-10-16T17:41:09;7.30;99.90
19389;DHT22;9830;41.876;23.474;2022-10-16T17:43:36;7.30;99.80
19389;DHT22;9830;41.876;23.474;2022-10-16T17:46:02;7.30;99.50
19389;DHT22;9830;41.876;23.474;2022-10-16T17:48:28;7.30;99.40